createdAt,value
2019-01-19T00:01:48.442Z,263.17
2019-01-19T00:04:54.620Z,288.97
2019-01-19T00:07:56.973Z,264.47
2019-01-19T00:11:29.006Z,268.43
2019-01-19T00:14:17.428Z,258.90
2019-01-19T00:17:11.148Z,301.20
2019-01-19T00:20:35.039Z,304.97
2019-01-19T00:23:16.154Z,275.60
2019-01-19T00:26:47.084Z,249.43
2019-01-19T00:29:35.517Z,210.17
2019-01-19T00:32:20.403Z,247.93
2019-01-19T00:35:38.325Z,246.20
2019-01-19T00:38:16.740Z,241.60
2019-01-19T00:41:36.754Z,246.77
2019-01-19T00:44:37.812Z,253.70
2019-01-19T00:47:49.689Z,256.13
2019-01-19T00:51:16.066Z,262.33
2019-01-19T00:54:10.353Z,256.23
2019-01-19T00:56:51.946Z,240.17
2019-01-19T00:59:26.921Z,259.13
2019-01-19T01:02:33.622Z,250.13
2019-01-19T01:05:25.344Z,247.20
2019-01-19T01:08:36.338Z,222.00
2019-01-19T01:11:16.910Z,240.23
2019-01-19T01:14:27.570Z,225.03
2019-01-19T01:17:42.877Z,217.63
2019-01-19T01:21:03.624Z,230.93
2019-01-19T01:24:18.920Z,215.27
2019-01-19T01:27:27.163Z,225.83
2019-01-19T01:30:36.065Z,239.70
2019-01-19T01:33:48.585Z,254.07
2019-01-19T01:36:32.766Z,248.33
2019-01-19T01:39:39.019Z,268.43
2019-01-19T01:42:31.573Z,293.20
2019-01-19T01:45:30.053Z,289.93
2019-01-19T01:48:27.048Z,280.80
2019-01-19T01:51:39.250Z,272.40
2019-01-19T01:54:24.318Z,295.57
2019-01-19T01:57:01.909Z,268.07
2019-01-19T01:59:52.747Z,276.47
2019-01-19T02:02:52.562Z,270.73
2019-01-19T02:05:40.307Z,294.67
2019-01-19T02:08:28.267Z,256.23
2019-01-19T02:11:46.876Z,242.43
2019-01-19T02:14:49.219Z,229.40
2019-01-19T02:18:00.922Z,247.37
2019-01-19T02:20:56.994Z,256.40
2019-01-19T02:24:02.467Z,219.30
2019-01-19T02:27:30.022Z,228.87
2019-01-19T02:30:50.045Z,233.47
2019-01-19T02:34:15.538Z,230.03
2019-01-19T02:37:30.453Z,233.87
2019-01-19T02:40:37.734Z,224.33
2019-01-19T02:43:22.201Z,208.23
2019-01-19T02:46:28.580Z,239.83
2019-01-19T02:49:36.106Z,243.80
2019-01-19T02:52:46.284Z,232.30
2019-01-19T02:56:01.470Z,240.07
2019-01-19T02:59:00.002Z,243.70
2019-01-19T03:02:16.424Z,251.80
2019-01-19T03:05:19.142Z,298.37
2019-01-19T03:08:31.097Z,283.87
2019-01-19T03:11:17.928Z,303.17
2019-01-19T03:14:16.008Z,265.97
2019-01-19T03:17:22.669Z,269.43
2019-01-19T03:20:31.694Z,241.10
2019-01-19T03:23:37.953Z,254.27
2019-01-19T03:26:19.791Z,248.03
2019-01-19T03:29:16.736Z,243.40
2019-01-19T03:32:25.694Z,274.37
2019-01-19T03:35:34.187Z,279.40
2019-01-19T03:38:30.914Z,290.90
2019-01-19T03:41:23.061Z,296.60
2019-01-19T03:44:42.857Z,277.03
2019-01-19T03:47:39.014Z,278.20
2019-01-19T03:50:43.116Z,283.07
2019-01-19T03:53:36.757Z,295.17
2019-01-19T03:57:06.529Z,285.60
2019-01-19T04:00:16.554Z,278.03
2019-01-19T04:03:24.063Z,308.63
2019-01-19T04:06:35.385Z,274.33
2019-01-19T04:09:33.122Z,262.63
2019-01-19T04:12:31.944Z,258.50
2019-01-19T04:16:06.047Z,264.80
2019-01-19T04:19:01.929Z,294.63
2019-01-19T04:22:08.735Z,309.50
2019-01-19T04:25:27.743Z,374.07
2019-01-19T04:28:00.431Z,365.13
2019-01-19T04:30:31.533Z,395.13
2019-01-19T04:33:02.883Z,372.33
2019-01-19T04:35:34.663Z,333.00
2019-01-19T04:38:08.616Z,333.80
2019-01-19T04:40:41.076Z,369.40
2019-01-19T04:43:15.703Z,372.17
2019-01-19T04:45:46.746Z,335.43
2019-01-19T04:48:19.679Z,297.83
2019-01-19T04:50:51.211Z,338.33
2019-01-19T04:53:22.188Z,367.30
2019-01-19T04:55:53.735Z,342.80
2019-01-19T04:58:25.346Z,328.70
2019-01-19T05:00:57.859Z,364.60
2019-01-19T05:03:31.395Z,355.07
2019-01-19T05:06:11.778Z,365.57
2019-01-19T05:08:35.691Z,376.03
2019-01-19T05:11:07.241Z,377.27
2019-01-19T05:13:38.237Z,372.63
2019-01-19T05:16:09.814Z,353.77
2019-01-19T05:18:44.534Z,354.83
2019-01-19T05:21:16.534Z,380.60
2019-01-19T05:23:49.958Z,348.90
2019-01-19T05:26:21.121Z,337.80
2019-01-19T05:28:52.534Z,334.73
2019-01-19T05:31:23.978Z,354.97
2019-01-19T05:33:55.231Z,320.87
2019-01-19T05:36:28.708Z,345.93
2019-01-19T05:38:59.839Z,380.10
2019-01-19T05:41:30.986Z,351.10
2019-01-19T05:44:02.358Z,335.10
2019-01-19T05:46:40.326Z,370.63
2019-01-19T05:49:13.188Z,424.20
2019-01-19T05:51:44.423Z,404.00
2019-01-19T05:54:16.181Z,390.60
2019-01-19T05:56:47.461Z,360.93
2019-01-19T05:59:18.730Z,384.95
2019-01-19T06:01:50.054Z,340.57
2019-01-19T06:04:21.258Z,318.93
2019-01-19T06:06:52.228Z,446.00
2019-01-19T06:09:23.249Z,389.77
2019-01-19T06:11:54.344Z,399.10
2019-01-19T06:14:28.185Z,373.70
2019-01-19T06:17:02.674Z,338.03
2019-01-19T06:19:34.039Z,361.80
2019-01-19T06:22:05.838Z,367.07
2019-01-19T06:24:36.951Z,379.10
2019-01-19T06:27:08.336Z,380.93
2019-01-19T06:29:39.720Z,382.70
2019-01-19T06:32:10.996Z,399.03
2019-01-19T06:34:42.112Z,435.00
2019-01-19T06:37:13.191Z,410.70
2019-01-19T06:39:44.195Z,430.33
2019-01-19T06:42:15.510Z,429.43
2019-01-19T06:44:46.777Z,464.40
2019-01-19T06:47:18.132Z,480.13
2019-01-19T06:49:51.582Z,463.57
2019-01-19T06:52:22.597Z,401.60
2019-01-19T06:54:53.869Z,457.10
2019-01-19T06:57:26.953Z,450.17
2019-01-19T06:59:59.684Z,411.30
2019-01-19T07:02:31.605Z,391.57
2019-01-19T07:05:06.329Z,401.63
2019-01-19T07:07:37.349Z,384.97
2019-01-19T07:10:12.740Z,387.53
2019-01-19T07:12:44.663Z,411.70
2019-01-19T07:15:23.453Z,411.03
2019-01-19T07:18:01.020Z,273.90
2019-01-19T07:20:32.630Z,282.00
2019-01-19T07:23:03.959Z,291.33
2019-01-19T07:25:37.094Z,528.60
2019-01-19T07:28:08.431Z,550.93
2019-01-19T07:30:39.498Z,490.90
2019-01-19T07:33:10.872Z,705.47
2019-01-19T07:35:43.704Z,573.03
2019-01-19T07:38:14.761Z,463.87
2019-01-19T07:40:46.021Z,355.30
2019-01-19T07:43:17.824Z,343.27
2019-01-19T07:45:48.811Z,350.83
2019-01-19T07:48:25.550Z,379.73
2019-01-19T07:51:06.692Z,436.40
2019-01-19T07:53:38.388Z,403.93
2019-01-19T07:56:11.803Z,388.57
2019-01-19T07:58:43.205Z,381.77
2019-01-19T08:01:15.442Z,336.93
2019-01-19T08:03:46.453Z,358.10
2019-01-19T08:06:17.619Z,365.93
2019-01-19T08:08:49.038Z,379.90
2019-01-19T08:11:19.951Z,345.27
2019-01-19T08:13:51.519Z,361.40
2019-01-19T08:16:22.490Z,224.97
2019-01-19T08:18:53.530Z,253.57
2019-01-19T08:21:24.567Z,257.20
2019-01-19T08:23:55.903Z,259.20
2019-01-19T08:26:27.357Z,272.80
2019-01-19T08:28:58.828Z,237.23
2019-01-19T08:31:29.854Z,238.73
2019-01-19T08:34:00.836Z,245.87
2019-01-19T08:36:31.950Z,264.00
2019-01-19T08:39:02.971Z,224.67
2019-01-19T08:41:33.934Z,275.97
2019-01-19T08:44:06.167Z,362.23
2019-01-19T08:46:37.514Z,303.73
2019-01-19T08:49:08.523Z,281.60
2019-01-19T08:51:39.864Z,283.47
2019-01-19T08:54:11.331Z,269.93
2019-01-19T08:56:42.745Z,306.47
2019-01-19T08:59:13.768Z,316.70
2019-01-19T09:01:45.158Z,288.60
2019-01-19T09:04:17.098Z,254.10
2019-01-19T09:06:48.085Z,281.03
2019-01-19T09:09:19.737Z,292.60
2019-01-19T09:11:50.697Z,320.37
2019-01-19T09:14:21.682Z,309.90
2019-01-19T09:16:53.790Z,315.47
2019-01-19T09:19:24.702Z,297.97
2019-01-19T09:21:55.815Z,219.97
2019-01-19T09:24:29.173Z,198.17
2019-01-19T09:27:00.228Z,215.63
2019-01-19T09:29:31.814Z,235.87
2019-01-19T09:32:03.392Z,206.27
2019-01-19T09:34:34.784Z,245.73
2019-01-19T09:37:06.122Z,198.47
2019-01-19T09:39:37.689Z,231.77
2019-01-19T09:42:08.673Z,248.00
2019-01-19T09:44:39.788Z,244.30
2019-01-19T09:47:10.751Z,216.40
2019-01-19T09:49:41.989Z,162.00
2019-01-19T09:52:12.947Z,159.73
2019-01-19T09:54:43.965Z,149.43
2019-01-19T09:57:16.682Z,137.63
2019-01-19T09:59:48.071Z,147.27
2019-01-19T10:02:20.267Z,141.23
2019-01-19T10:04:55.029Z,180.80
2019-01-19T10:07:27.018Z,185.57
2019-01-19T10:09:57.969Z,163.53
2019-01-19T10:12:28.980Z,188.90
2019-01-19T10:15:00.416Z,268.97
2019-01-19T10:17:31.767Z,173.50
2019-01-19T10:20:02.821Z,175.47
2019-01-19T10:22:33.984Z,198.87
2019-01-19T10:25:06.525Z,217.57
2019-01-19T10:27:37.616Z,189.50
2019-01-19T10:30:15.613Z,173.03
2019-01-19T10:32:47.030Z,184.13
2019-01-19T10:35:19.652Z,194.47
2019-01-19T10:37:56.320Z,226.77
2019-01-19T10:40:23.355Z,229.03
2019-01-19T10:42:54.415Z,239.13
2019-01-19T10:45:28.919Z,259.23
2019-01-19T10:47:59.817Z,338.33
2019-01-19T10:50:31.176Z,278.37
2019-01-19T10:53:02.125Z,290.23
2019-01-19T10:55:33.099Z,254.53
2019-01-19T10:58:04.086Z,242.70
2019-01-19T11:00:35.277Z,375.20
2019-01-19T11:03:06.472Z,300.17
2019-01-19T11:05:37.871Z,238.27
2019-01-19T11:08:10.565Z,242.47
2019-01-19T11:10:41.969Z,428.67
2019-01-19T11:13:13.400Z,307.70
2019-01-19T11:15:46.603Z,194.30
2019-01-19T11:18:18.044Z,128.47
2019-01-19T11:20:49.534Z,143.70
2019-01-19T11:23:20.533Z,169.77
2019-01-19T11:25:51.578Z,335.90
2019-01-19T11:28:22.556Z,216.53
2019-01-19T11:30:53.537Z,226.33
2019-01-19T11:33:24.636Z,212.53
2019-01-19T11:35:55.699Z,215.83
2019-01-19T11:38:26.618Z,173.93
2019-01-19T11:40:57.956Z,168.00
2019-01-19T11:43:29.363Z,173.27
2019-01-19T11:46:01.021Z,153.77
2019-01-19T11:48:31.997Z,138.27
2019-01-19T11:51:03.049Z,159.77
2019-01-19T11:53:34.187Z,194.57
2019-01-19T11:56:12.007Z,255.77
2019-01-19T11:58:38.782Z,190.00
2019-01-19T12:01:09.747Z,179.73
2019-01-19T12:03:40.805Z,187.90
2019-01-19T12:06:11.839Z,167.50
2019-01-19T12:08:43.298Z,135.53
2019-01-19T12:11:14.407Z,119.03
2019-01-19T12:13:45.723Z,120.53
2019-01-19T12:16:16.698Z,131.57
2019-01-19T12:18:48.050Z,174.47
2019-01-19T12:21:19.128Z,201.00
2019-01-19T12:23:51.906Z,203.07
2019-01-19T12:26:23.301Z,165.53
2019-01-19T12:28:55.189Z,235.33
2019-01-19T12:31:34.502Z,114.73
2019-01-19T12:34:06.160Z,138.20
2019-01-19T12:36:37.561Z,189.10
2019-01-19T12:39:11.672Z,294.67
2019-01-19T12:41:42.967Z,233.20
2019-01-19T12:44:13.964Z,147.07
2019-01-19T12:46:45.188Z,182.00
2019-01-19T12:49:20.862Z,199.27
2019-01-19T12:51:52.296Z,142.30
2019-01-19T12:54:23.767Z,159.03
2019-01-19T12:56:54.863Z,100.30
2019-01-19T12:59:25.810Z,185.40
2019-01-19T13:01:57.184Z,141.23
2019-01-19T13:04:29.880Z,150.87
2019-01-19T13:07:11.335Z,171.27
2019-01-19T13:09:46.099Z,176.93
2019-01-19T13:12:35.291Z,196.13
2019-01-19T13:15:53.899Z,213.73
2019-01-19T13:19:04.556Z,195.23
2019-01-19T13:22:12.814Z,279.90
2019-01-19T13:25:40.156Z,216.33
2019-01-19T13:29:01.078Z,180.20
2019-01-19T13:36:11.888Z,150.70
2019-01-19T13:39:00.964Z,141.17
2019-01-19T13:42:14.118Z,192.00
2019-01-19T13:45:27.901Z,152.07
2019-01-19T13:48:26.125Z,135.70
2019-01-19T13:51:21.788Z,136.40
2019-01-19T13:54:42.339Z,162.87
2019-01-19T13:57:28.475Z,192.80
2019-01-19T14:00:24.667Z,182.53
2019-01-19T14:03:23.271Z,158.40
2019-01-19T14:06:34.416Z,161.33
2019-01-19T14:10:00.246Z,175.27
2019-01-19T14:12:54.558Z,227.60
2019-01-19T14:15:56.987Z,203.23
2019-01-19T14:19:07.877Z,264.40
2019-01-19T14:22:07.341Z,276.27
2019-01-19T14:25:00.097Z,269.83
2019-01-19T14:28:17.760Z,307.43
2019-01-19T14:31:35.015Z,338.73
2019-01-19T14:34:46.043Z,349.97
2019-01-19T14:37:34.813Z,369.90
2019-01-19T14:40:28.817Z,368.60
2019-01-19T14:43:42.679Z,215.70
2019-01-19T14:46:46.067Z,257.57
2019-01-19T14:49:57.705Z,379.63
2019-01-19T14:53:15.769Z,337.93
2019-01-19T14:56:36.675Z,487.10
2019-01-19T14:59:34.238Z,325.30
2019-01-19T15:02:51.940Z,365.67
2019-01-19T15:05:50.922Z,252.00
2019-01-19T15:08:33.193Z,172.27
2019-01-19T15:11:50.829Z,185.53
2019-01-19T15:14:59.219Z,610.20
2019-01-19T15:18:19.002Z,455.17
2019-01-19T15:21:32.824Z,399.40
2019-01-19T15:24:40.182Z,250.17
2019-01-19T15:27:53.579Z,271.10
2019-01-19T15:30:57.697Z,293.83
2019-01-19T15:34:00.339Z,337.80
2019-01-19T15:37:23.547Z,315.37
2019-01-19T15:40:35.289Z,319.37
2019-01-19T15:43:46.944Z,321.77
2019-01-19T15:47:01.660Z,305.83
2019-01-19T15:50:08.325Z,344.23
2019-01-19T15:53:29.290Z,345.20
2019-01-19T15:56:43.596Z,278.37
2019-01-19T15:59:28.920Z,301.17
2019-01-19T16:02:45.065Z,271.60
2019-01-19T16:05:48.575Z,368.60
2019-01-19T16:08:32.435Z,425.20
2019-01-19T16:11:23.524Z,323.40
2019-01-19T16:14:50.983Z,419.03
2019-01-19T16:17:58.176Z,418.33
2019-01-19T16:21:19.019Z,396.97
2019-01-19T16:24:19.883Z,422.93
2019-01-19T16:27:16.277Z,463.27
2019-01-19T16:30:22.517Z,429.47
2019-01-19T16:33:52.426Z,478.27
2019-01-19T16:37:08.401Z,469.03
2019-01-19T16:40:07.057Z,508.37
2019-01-19T16:43:35.084Z,459.03
2019-01-19T16:47:17.556Z,525.23
2019-01-19T16:50:28.137Z,671.97
2019-01-19T16:53:18.930Z,551.00
2019-01-19T16:56:16.225Z,438.47
2019-01-19T16:59:28.151Z,452.07
2019-01-19T17:02:20.439Z,649.40
2019-01-19T17:05:36.195Z,446.00
2019-01-19T17:08:46.508Z,494.20
2019-01-19T17:11:51.075Z,856.27
2019-01-19T17:15:03.420Z,552.53
2019-01-19T17:18:24.096Z,395.37
2019-01-19T17:21:37.723Z,403.27
2019-01-19T17:24:33.668Z,377.17
2019-01-19T17:27:36.450Z,370.60
2019-01-19T17:30:48.053Z,357.23
2019-01-19T17:33:48.866Z,409.67
2019-01-19T17:37:10.090Z,464.90
2019-01-19T17:40:27.263Z,560.40
2019-01-19T17:43:57.345Z,518.03
2019-01-19T17:46:49.507Z,457.27
2019-01-19T17:50:16.785Z,398.53
2019-01-19T17:53:17.491Z,515.20
2019-01-19T17:56:24.399Z,502.77
2019-01-19T17:59:35.285Z,484.67
2019-01-19T18:02:58.488Z,479.93
2019-01-19T18:06:03.490Z,557.30
2019-01-19T18:09:03.909Z,562.47
2019-01-19T18:12:14.098Z,545.03
2019-01-19T18:15:18.160Z,490.13
2019-01-19T18:18:31.317Z,507.73
2019-01-19T18:21:52.548Z,429.97
2019-01-19T18:25:04.305Z,434.73
2019-01-19T18:28:19.282Z,415.37
2019-01-19T18:31:45.098Z,485.40
2019-01-19T18:34:48.598Z,514.43
2019-01-19T18:37:49.683Z,614.50
2019-01-19T18:41:10.087Z,544.37
2019-01-19T18:44:02.871Z,536.03
2019-01-19T18:47:10.909Z,552.27
2019-01-19T18:50:37.942Z,552.57
2019-01-19T18:53:48.399Z,554.07
2019-01-19T18:56:49.926Z,590.33
2019-01-19T18:59:41.837Z,579.93
2019-01-19T19:02:29.652Z,580.80
2019-01-19T19:05:17.862Z,470.10
2019-01-19T19:08:47.989Z,482.33
2019-01-19T19:12:02.977Z,456.27
2019-01-19T19:15:22.963Z,451.83
2019-01-19T19:18:14.935Z,417.07
2019-01-19T19:21:30.503Z,400.70
2019-01-19T19:24:16.351Z,336.30
2019-01-19T19:27:23.846Z,412.20
2019-01-19T19:30:06.574Z,320.10
2019-01-19T19:33:24.282Z,382.33
2019-01-19T19:36:41.601Z,412.30
2019-01-19T19:39:38.199Z,337.93
2019-01-19T19:42:45.470Z,351.63
2019-01-19T19:45:57.329Z,370.87
2019-01-19T19:49:24.283Z,366.10
2019-01-19T19:51:58.741Z,372.93
2019-01-19T19:54:31.474Z,362.23
2019-01-19T19:57:02.753Z,397.07
2019-01-19T19:59:34.469Z,388.20
2019-01-19T20:02:08.941Z,446.23
2019-01-19T20:04:41.123Z,453.97
2019-01-19T20:07:21.213Z,470.30
2019-01-19T20:09:52.206Z,455.47
2019-01-19T20:12:24.727Z,455.57
2019-01-19T20:14:59.069Z,439.17
2019-01-19T20:17:30.438Z,424.63
2019-01-19T20:20:02.677Z,429.23
2019-01-19T20:22:34.052Z,421.90
2019-01-19T20:25:06.128Z,428.30
2019-01-19T20:27:37.256Z,530.80
2019-01-19T20:30:11.050Z,442.47
2019-01-19T20:32:42.430Z,439.77
2019-01-19T20:35:17.999Z,434.07
2019-01-19T20:37:54.738Z,564.00
2019-01-19T20:40:29.316Z,591.33
2019-01-19T20:43:00.847Z,567.10
2019-01-19T20:45:31.911Z,510.50
2019-01-19T20:48:04.044Z,496.03
2019-01-19T20:50:35.144Z,478.43
2019-01-19T20:53:06.269Z,476.07
2019-01-19T20:55:37.366Z,447.53
2019-01-19T20:58:09.087Z,463.37
2019-01-19T21:01:05.284Z,467.07
2019-01-19T21:03:57.449Z,549.00
2019-01-19T21:06:52.193Z,438.63
2019-01-19T21:09:44.277Z,472.03
2019-01-19T21:12:41.721Z,447.33
2019-01-19T21:15:34.785Z,418.80
2019-01-19T21:18:27.306Z,450.63
2019-01-19T21:21:17.032Z,486.43
2019-01-19T21:24:07.650Z,501.80
2019-01-19T21:26:57.277Z,491.50
2019-01-19T21:29:46.987Z,475.53
2019-01-19T21:32:36.799Z,443.60
2019-01-19T21:35:26.353Z,451.50
2019-01-19T21:38:16.812Z,450.00
2019-01-19T21:41:07.507Z,566.30
2019-01-19T21:44:00.218Z,604.80
2019-01-19T21:46:55.345Z,608.13
2019-01-19T21:49:44.900Z,636.57
2019-01-19T21:52:34.874Z,611.57
2019-01-19T21:55:24.574Z,812.33
2019-01-19T21:58:14.796Z,805.77
2019-01-19T22:01:04.613Z,604.17
2019-01-19T22:03:59.181Z,686.80
2019-01-19T22:06:48.977Z,632.43
2019-01-19T22:09:38.805Z,529.47
2019-01-19T22:12:28.790Z,451.10
2019-01-19T22:15:19.385Z,339.53
2019-01-19T22:18:09.150Z,407.53
2019-01-19T22:20:58.721Z,394.83
2019-01-19T22:23:48.351Z,381.07
2019-01-19T22:26:38.751Z,397.60
2019-01-19T22:29:28.026Z,426.43
2019-01-19T22:32:17.793Z,401.37
2019-01-19T22:35:08.518Z,374.73
2019-01-19T22:37:57.302Z,397.77
2019-01-19T22:40:53.458Z,421.23
2019-01-19T22:43:38.584Z,403.97
2019-01-19T22:46:29.397Z,415.40
2019-01-19T22:49:20.232Z,414.20
2019-01-19T22:52:09.976Z,452.90
2019-01-19T22:54:59.808Z,423.70
2019-01-19T22:57:49.529Z,405.57
2019-01-19T23:01:36.282Z,358.07
2019-01-19T23:04:26.477Z,320.47
2019-01-19T23:07:16.462Z,276.80
2019-01-19T23:10:06.418Z,255.30
2019-01-19T23:12:56.634Z,264.57
2019-01-19T23:15:46.113Z,240.87
2019-01-19T23:18:36.149Z,231.53
2019-01-19T23:21:24.814Z,216.93
2019-01-19T23:24:15.147Z,209.77
2019-01-19T23:27:07.725Z,203.43
2019-01-19T23:29:57.609Z,243.23
2019-01-19T23:32:47.375Z,267.23
2019-01-19T23:35:36.365Z,224.27
2019-01-19T23:38:25.359Z,241.17
2019-01-19T23:41:14.993Z,373.80
2019-01-19T23:44:04.703Z,307.23
2019-01-19T23:46:54.384Z,330.77
2019-01-19T23:49:43.820Z,313.63
2019-01-19T23:52:33.010Z,321.80
2019-01-19T23:55:22.488Z,342.73
2019-01-19T23:58:12.210Z,354.90
